sensor_id;sensor_type;location;lat;lon;timestamp;P1;durP1;ratioP1;P2;durP2;ratioP2
68432;SDS011;55412;51.350;17.056;2023-07-20T00:02:16;4.97;;;1.30;;
68432;SDS011;55412;51.350;17.056;2023-07-20T00:04:42;4.82;;;1.65;;
68432;SDS011;55412;51.350;17.056;2023-07-20T00:07:08;4.75;;;1.10;;
68432;SDS011;55412;51.350;17.056;2023-07-20T00:09:35;3.80;;;1.43;;
68432;SDS011;55412;51.350;17.056;2023-07-20T00:12:01;5.53;;;1.17;;
68432;SDS011;55412;51.350;17.056;2023-07-20T00:14:27;6.22;;;1.60;;
68432;SDS011;55412;51.350;17.056;2023-07-20T00:16:54;3.92;;;1.40;;
68432;SDS011;55412;51.350;17.056;2023-07-20T00:19:22;3.97;;;1.35;;
68432;SDS011;55412;51.350;17.056;2023-07-20T00:21:53;4.13;;;1.70;;
68432;SDS011;55412;51.350;17.056;2023-07-20T00:24:20;19.92;;;1.80;;
68432;SDS011;55412;51.350;17.056;2023-07-20T00:26:46;4.10;;;1.50;;
68432;SDS011;55412;51.350;17.056;2023-07-20T00:29:13;3.50;;;1.30;;
68432;SDS011;55412;51.350;17.056;2023-07-20T00:31:39;4.25;;;1.60;;
68432;SDS011;55412;51.350;17.056;2023-07-20T00:34:05;3.77;;;1.30;;
68432;SDS011;55412;51.350;17.056;2023-07-20T00:36:32;3.80;;;1.40;;
68432;SDS011;55412;51.350;17.056;2023-07-20T00:38:58;4.88;;;1.80;;
68432;SDS011;55412;51.350;17.056;2023-07-20T00:41:24;5.00;;;1.55;;
68432;SDS011;55412;51.350;17.056;2023-07-20T00:43:54;4.40;;;1.88;;
68432;SDS011;55412;51.350;17.056;2023-07-20T00:46:22;4.90;;;1.17;;
68432;SDS011;55412;51.350;17.056;2023-07-20T00:48:52;5.10;;;1.60;;
68432;SDS011;55412;51.350;17.056;2023-07-20T00:51:19;3.45;;;1.48;;
68432;SDS011;55412;51.350;17.056;2023-07-20T00:53:47;6.43;;;1.45;;
68432;SDS011;55412;51.350;17.056;2023-07-20T00:56:13;6.95;;;2.00;;
68432;SDS011;55412;51.350;17.056;2023-07-20T00:58:40;7.47;;;1.60;;
68432;SDS011;55412;51.350;17.056;2023-07-20T01:01:07;3.58;;;1.40;;
68432;SDS011;55412;51.350;17.056;2023-07-20T01:03:33;4.20;;;1.63;;
68432;SDS011;55412;51.350;17.056;2023-07-20T01:06:17;4.80;;;1.33;;
68432;SDS011;55412;51.350;17.056;2023-07-20T01:12:13;4.67;;;1.17;;
68432;SDS011;55412;51.350;17.056;2023-07-20T01:14:58;4.47;;;1.63;;
68432;SDS011;55412;51.350;17.056;2023-07-20T01:17:25;6.38;;;1.85;;
68432;SDS011;55412;51.350;17.056;2023-07-20T01:19:55;5.20;;;1.63;;
68432;SDS011;55412;51.350;17.056;2023-07-20T01:25:42;3.93;;;1.50;;
68432;SDS011;55412;51.350;17.056;2023-07-20T01:31:55;4.28;;;1.50;;
68432;SDS011;55412;51.350;17.056;2023-07-20T01:34:22;4.47;;;1.80;;
68432;SDS011;55412;51.350;17.056;2023-07-20T01:36:50;4.30;;;1.70;;
68432;SDS011;55412;51.350;17.056;2023-07-20T01:39:19;3.97;;;1.47;;
68432;SDS011;55412;51.350;17.056;2023-07-20T01:41:47;7.68;;;1.85;;
68432;SDS011;55412;51.350;17.056;2023-07-20T01:44:13;4.53;;;1.85;;
68432;SDS011;55412;51.350;17.056;2023-07-20T01:46:39;4.80;;;2.03;;
68432;SDS011;55412;51.350;17.056;2023-07-20T01:49:06;4.47;;;1.77;;
68432;SDS011;55412;51.350;17.056;2023-07-20T01:51:32;4.23;;;1.37;;
68432;SDS011;55412;51.350;17.056;2023-07-20T01:53:58;6.65;;;1.90;;
68432;SDS011;55412;51.350;17.056;2023-07-20T01:56:25;6.07;;;2.05;;
68432;SDS011;55412;51.350;17.056;2023-07-20T02:02:32;5.88;;;1.90;;
68432;SDS011;55412;51.350;17.056;2023-07-20T02:04:58;5.97;;;1.77;;
68432;SDS011;55412;51.350;17.056;2023-07-20T02:07:25;5.28;;;2.10;;
68432;SDS011;55412;51.350;17.056;2023-07-20T02:09:51;4.50;;;1.80;;
68432;SDS011;55412;51.350;17.056;2023-07-20T02:12:18;5.05;;;2.00;;
68432;SDS011;55412;51.350;17.056;2023-07-20T02:14:44;4.28;;;1.80;;
68432;SDS011;55412;51.350;17.056;2023-07-20T02:17:10;8.60;;;2.00;;
68432;SDS011;55412;51.350;17.056;2023-07-20T02:19:36;5.88;;;1.83;;
68432;SDS011;55412;51.350;17.056;2023-07-20T02:22:03;7.38;;;2.15;;
68432;SDS011;55412;51.350;17.056;2023-07-20T02:24:30;5.63;;;2.10;;
68432;SDS011;55412;51.350;17.056;2023-07-20T02:26:57;5.78;;;2.25;;
68432;SDS011;55412;51.350;17.056;2023-07-20T02:29:23;4.50;;;2.03;;
68432;SDS011;55412;51.350;17.056;2023-07-20T02:31:49;4.22;;;1.90;;
68432;SDS011;55412;51.350;17.056;2023-07-20T02:34:17;6.28;;;1.98;;
68432;SDS011;55412;51.350;17.056;2023-07-20T02:36:43;4.82;;;1.70;;
68432;SDS011;55412;51.350;17.056;2023-07-20T02:39:11;9.68;;;3.30;;
68432;SDS011;55412;51.350;17.056;2023-07-20T02:41:37;4.90;;;2.03;;
68432;SDS011;55412;51.350;17.056;2023-07-20T02:44:08;6.82;;;2.78;;
68432;SDS011;55412;51.350;17.056;2023-07-20T02:46:34;5.05;;;2.10;;
68432;SDS011;55412;51.350;17.056;2023-07-20T02:49:00;5.18;;;1.90;;
68432;SDS011;55412;51.350;17.056;2023-07-20T02:51:27;6.65;;;2.10;;
68432;SDS011;55412;51.350;17.056;2023-07-20T02:53:53;6.93;;;1.83;;
68432;SDS011;55412;51.350;17.056;2023-07-20T02:56:23;7.20;;;2.13;;
68432;SDS011;55412;51.350;17.056;2023-07-20T02:58:49;7.22;;;2.20;;
68432;SDS011;55412;51.350;17.056;2023-07-20T03:01:16;5.18;;;1.88;;
68432;SDS011;55412;51.350;17.056;2023-07-20T03:03:42;4.25;;;1.65;;
68432;SDS011;55412;51.350;17.056;2023-07-20T03:06:14;5.53;;;1.57;;
68432;SDS011;55412;51.350;17.056;2023-07-20T03:08:42;4.10;;;1.38;;
68432;SDS011;55412;51.350;17.056;2023-07-20T03:11:10;6.70;;;2.33;;
68432;SDS011;55412;51.350;17.056;2023-07-20T03:13:36;4.53;;;1.65;;
68432;SDS011;55412;51.350;17.056;2023-07-20T03:16:02;8.10;;;1.83;;
68432;SDS011;55412;51.350;17.056;2023-07-20T03:18:29;5.60;;;2.43;;
68432;SDS011;55412;51.350;17.056;2023-07-20T03:20:55;5.85;;;1.75;;
68432;SDS011;55412;51.350;17.056;2023-07-20T03:23:22;7.85;;;2.47;;
68432;SDS011;55412;51.350;17.056;2023-07-20T03:25:51;8.23;;;2.38;;
68432;SDS011;55412;51.350;17.056;2023-07-20T03:28:20;7.47;;;2.17;;
68432;SDS011;55412;51.350;17.056;2023-07-20T03:30:46;5.30;;;1.63;;
68432;SDS011;55412;51.350;17.056;2023-07-20T03:33:22;6.07;;;2.10;;
68432;SDS011;55412;51.350;17.056;2023-07-20T03:35:52;4.70;;;1.90;;
68432;SDS011;55412;51.350;17.056;2023-07-20T03:38:19;6.25;;;2.28;;
68432;SDS011;55412;51.350;17.056;2023-07-20T03:43:25;5.83;;;2.40;;
68432;SDS011;55412;51.350;17.056;2023-07-20T03:45:52;6.05;;;2.08;;
68432;SDS011;55412;51.350;17.056;2023-07-20T03:48:21;5.57;;;2.35;;
68432;SDS011;55412;51.350;17.056;2023-07-20T03:53:51;6.03;;;2.53;;
68432;SDS011;55412;51.350;17.056;2023-07-20T03:56:18;5.27;;;2.00;;
68432;SDS011;55412;51.350;17.056;2023-07-20T03:58:44;5.20;;;2.10;;
68432;SDS011;55412;51.350;17.056;2023-07-20T04:01:10;7.63;;;2.58;;
68432;SDS011;55412;51.350;17.056;2023-07-20T04:03:38;4.85;;;2.30;;
68432;SDS011;55412;51.350;17.056;2023-07-20T04:06:04;7.03;;;2.30;;
68432;SDS011;55412;51.350;17.056;2023-07-20T04:08:31;4.60;;;1.80;;
68432;SDS011;55412;51.350;17.056;2023-07-20T04:10:57;5.57;;;2.30;;
68432;SDS011;55412;51.350;17.056;2023-07-20T04:13:23;7.85;;;2.67;;
68432;SDS011;55412;51.350;17.056;2023-07-20T04:15:53;6.60;;;2.00;;
68432;SDS011;55412;51.350;17.056;2023-07-20T04:18:20;9.43;;;2.38;;
68432;SDS011;55412;51.350;17.056;2023-07-20T04:20:46;4.00;;;1.87;;
68432;SDS011;55412;51.350;17.056;2023-07-20T04:23:13;4.90;;;2.10;;
68432;SDS011;55412;51.350;17.056;2023-07-20T04:25:39;5.25;;;2.40;;
68432;SDS011;55412;51.350;17.056;2023-07-20T04:28:09;9.30;;;2.67;;
68432;SDS011;55412;51.350;17.056;2023-07-20T04:30:36;5.32;;;2.47;;
68432;SDS011;55412;51.350;17.056;2023-07-20T04:33:03;6.10;;;2.60;;
68432;SDS011;55412;51.350;17.056;2023-07-20T04:38:14;7.20;;;2.90;;
68432;SDS011;55412;51.350;17.056;2023-07-20T04:40:42;5.43;;;2.60;;
68432;SDS011;55412;51.350;17.056;2023-07-20T04:43:16;5.25;;;2.35;;
68432;SDS011;55412;51.350;17.056;2023-07-20T04:45:50;7.67;;;2.80;;
68432;SDS011;55412;51.350;17.056;2023-07-20T04:48:20;5.45;;;2.40;;
68432;SDS011;55412;51.350;17.056;2023-07-20T04:50:46;5.82;;;2.78;;
68432;SDS011;55412;51.350;17.056;2023-07-20T04:53:16;9.75;;;2.45;;
68432;SDS011;55412;51.350;17.056;2023-07-20T04:55:49;8.55;;;2.50;;
68432;SDS011;55412;51.350;17.056;2023-07-20T04:58:17;8.17;;;2.80;;
68432;SDS011;55412;51.350;17.056;2023-07-20T05:00:48;6.10;;;2.63;;
68432;SDS011;55412;51.350;17.056;2023-07-20T05:03:16;7.68;;;2.90;;
68432;SDS011;55412;51.350;17.056;2023-07-20T05:05:43;6.22;;;2.65;;
68432;SDS011;55412;51.350;17.056;2023-07-20T05:08:09;5.00;;;2.70;;
68432;SDS011;55412;51.350;17.056;2023-07-20T05:10:35;8.07;;;3.00;;
68432;SDS011;55412;51.350;17.056;2023-07-20T05:13:02;8.20;;;2.50;;
68432;SDS011;55412;51.350;17.056;2023-07-20T05:15:28;8.23;;;2.58;;
68432;SDS011;55412;51.350;17.056;2023-07-20T05:17:54;6.05;;;2.50;;
68432;SDS011;55412;51.350;17.056;2023-07-20T05:20:20;5.60;;;2.60;;
68432;SDS011;55412;51.350;17.056;2023-07-20T05:22:47;6.30;;;2.93;;
68432;SDS011;55412;51.350;17.056;2023-07-20T05:25:14;7.20;;;3.13;;
68432;SDS011;55412;51.350;17.056;2023-07-20T05:27:43;9.48;;;2.88;;
68432;SDS011;55412;51.350;17.056;2023-07-20T05:30:11;7.93;;;2.80;;
68432;SDS011;55412;51.350;17.056;2023-07-20T05:32:37;5.35;;;2.38;;
68432;SDS011;55412;51.350;17.056;2023-07-20T05:35:03;5.63;;;1.93;;
68432;SDS011;55412;51.350;17.056;2023-07-20T05:37:34;4.72;;;2.25;;
68432;SDS011;55412;51.350;17.056;2023-07-20T05:40:03;5.90;;;2.80;;
68432;SDS011;55412;51.350;17.056;2023-07-20T05:42:33;7.03;;;2.50;;
68432;SDS011;55412;51.350;17.056;2023-07-20T05:44:59;4.85;;;2.28;;
68432;SDS011;55412;51.350;17.056;2023-07-20T05:47:26;8.50;;;2.67;;
68432;SDS011;55412;51.350;17.056;2023-07-20T05:49:52;6.68;;;2.67;;
68432;SDS011;55412;51.350;17.056;2023-07-20T05:52:18;9.18;;;2.78;;
68432;SDS011;55412;51.350;17.056;2023-07-20T05:54:44;4.28;;;2.22;;
68432;SDS011;55412;51.350;17.056;2023-07-20T05:57:10;6.60;;;2.58;;
68432;SDS011;55412;51.350;17.056;2023-07-20T05:59:37;6.37;;;2.33;;
68432;SDS011;55412;51.350;17.056;2023-07-20T06:02:03;5.43;;;2.22;;
68432;SDS011;55412;51.350;17.056;2023-07-20T06:04:30;6.38;;;2.70;;
68432;SDS011;55412;51.350;17.056;2023-07-20T06:06:56;6.80;;;2.17;;
68432;SDS011;55412;51.350;17.056;2023-07-20T06:09:22;7.07;;;2.63;;
68432;SDS011;55412;51.350;17.056;2023-07-20T06:11:49;5.73;;;2.30;;
68432;SDS011;55412;51.350;17.056;2023-07-20T06:14:15;5.30;;;2.70;;
68432;SDS011;55412;51.350;17.056;2023-07-20T06:16:41;7.78;;;2.67;;
68432;SDS011;55412;51.350;17.056;2023-07-20T06:19:07;7.20;;;2.53;;
68432;SDS011;55412;51.350;17.056;2023-07-20T06:21:36;6.45;;;2.50;;
68432;SDS011;55412;51.350;17.056;2023-07-20T06:24:02;6.23;;;2.40;;
68432;SDS011;55412;51.350;17.056;2023-07-20T06:26:28;6.72;;;3.03;;
68432;SDS011;55412;51.350;17.056;2023-07-20T06:28:56;6.15;;;2.80;;
68432;SDS011;55412;51.350;17.056;2023-07-20T06:31:22;5.35;;;2.20;;
68432;SDS011;55412;51.350;17.056;2023-07-20T06:33:48;6.20;;;2.47;;
68432;SDS011;55412;51.350;17.056;2023-07-20T06:36:17;5.57;;;2.40;;
68432;SDS011;55412;51.350;17.056;2023-07-20T06:38:44;6.85;;;3.03;;
68432;SDS011;55412;51.350;17.056;2023-07-20T06:41:10;6.03;;;2.50;;
68432;SDS011;55412;51.350;17.056;2023-07-20T06:43:36;6.97;;;3.17;;
68432;SDS011;55412;51.350;17.056;2023-07-20T06:46:02;5.03;;;2.30;;
68432;SDS011;55412;51.350;17.056;2023-07-20T06:48:28;7.17;;;3.10;;
68432;SDS011;55412;51.350;17.056;2023-07-20T06:50:55;6.70;;;2.65;;
68432;SDS011;55412;51.350;17.056;2023-07-20T06:53:21;5.90;;;2.47;;
68432;SDS011;55412;51.350;17.056;2023-07-20T06:55:47;4.38;;;2.00;;
68432;SDS011;55412;51.350;17.056;2023-07-20T06:58:14;5.78;;;2.30;;
68432;SDS011;55412;51.350;17.056;2023-07-20T07:00:40;6.27;;;2.90;;
68432;SDS011;55412;51.350;17.056;2023-07-20T07:03:06;5.00;;;2.42;;
68432;SDS011;55412;51.350;17.056;2023-07-20T07:05:35;6.50;;;2.72;;
68432;SDS011;55412;51.350;17.056;2023-07-20T07:08:03;6.90;;;2.15;;
68432;SDS011;55412;51.350;17.056;2023-07-20T07:10:30;5.93;;;2.67;;
68432;SDS011;55412;51.350;17.056;2023-07-20T07:12:57;6.77;;;2.67;;
68432;SDS011;55412;51.350;17.056;2023-07-20T07:15:23;5.45;;;2.17;;
68432;SDS011;55412;51.350;17.056;2023-07-20T07:17:49;4.93;;;2.45;;
68432;SDS011;55412;51.350;17.056;2023-07-20T07:20:15;6.13;;;3.05;;
68432;SDS011;55412;51.350;17.056;2023-07-20T07:22:41;6.78;;;2.90;;
68432;SDS011;55412;51.350;17.056;2023-07-20T07:25:09;4.63;;;2.53;;
68432;SDS011;55412;51.350;17.056;2023-07-20T07:27:35;6.43;;;2.97;;
68432;SDS011;55412;51.350;17.056;2023-07-20T07:30:02;5.78;;;2.38;;
68432;SDS011;55412;51.350;17.056;2023-07-20T07:32:29;5.53;;;2.55;;
68432;SDS011;55412;51.350;17.056;2023-07-20T07:34:55;5.75;;;2.92;;
68432;SDS011;55412;51.350;17.056;2023-07-20T07:37:24;7.73;;;2.87;;
68432;SDS011;55412;51.350;17.056;2023-07-20T07:39:50;4.45;;;2.25;;
68432;SDS011;55412;51.350;17.056;2023-07-20T07:42:16;6.13;;;2.47;;
68432;SDS011;55412;51.350;17.056;2023-07-20T07:44:43;4.97;;;1.70;;
68432;SDS011;55412;51.350;17.056;2023-07-20T07:47:10;7.22;;;2.38;;
68432;SDS011;55412;51.350;17.056;2023-07-20T07:49:37;9.20;;;2.33;;
68432;SDS011;55412;51.350;17.056;2023-07-20T07:52:03;4.60;;;2.10;;
68432;SDS011;55412;51.350;17.056;2023-07-20T07:54:30;5.13;;;1.70;;
68432;SDS011;55412;51.350;17.056;2023-07-20T07:56:56;9.98;;;2.05;;
68432;SDS011;55412;51.350;17.056;2023-07-20T07:59:22;4.13;;;1.73;;
68432;SDS011;55412;51.350;17.056;2023-07-20T08:01:48;4.63;;;1.97;;
68432;SDS011;55412;51.350;17.056;2023-07-20T08:04:15;4.75;;;1.90;;
68432;SDS011;55412;51.350;17.056;2023-07-20T08:06:41;5.85;;;2.35;;
68432;SDS011;55412;51.350;17.056;2023-07-20T08:09:07;5.70;;;2.03;;
68432;SDS011;55412;51.350;17.056;2023-07-20T08:11:33;5.35;;;1.75;;
68432;SDS011;55412;51.350;17.056;2023-07-20T08:14:00;5.83;;;2.20;;
68432;SDS011;55412;51.350;17.056;2023-07-20T08:16:26;4.63;;;1.88;;
68432;SDS011;55412;51.350;17.056;2023-07-20T08:18:53;6.40;;;1.88;;
68432;SDS011;55412;51.350;17.056;2023-07-20T08:21:19;4.78;;;1.40;;
68432;SDS011;55412;51.350;17.056;2023-07-20T08:23:45;4.68;;;1.98;;
68432;SDS011;55412;51.350;17.056;2023-07-20T08:26:14;3.97;;;1.50;;
68432;SDS011;55412;51.350;17.056;2023-07-20T08:28:42;7.38;;;2.35;;
68432;SDS011;55412;51.350;17.056;2023-07-20T08:31:10;5.00;;;2.42;;
68432;SDS011;55412;51.350;17.056;2023-07-20T08:33:36;4.15;;;2.10;;
68432;SDS011;55412;51.350;17.056;2023-07-20T08:36:02;3.55;;;1.80;;
68432;SDS011;55412;51.350;17.056;2023-07-20T08:38:29;4.70;;;1.80;;
68432;SDS011;55412;51.350;17.056;2023-07-20T08:40:55;4.55;;;1.67;;
68432;SDS011;55412;51.350;17.056;2023-07-20T08:43:22;4.05;;;2.05;;
68432;SDS011;55412;51.350;17.056;2023-07-20T08:45:49;3.65;;;1.70;;
68432;SDS011;55412;51.350;17.056;2023-07-20T08:48:17;3.30;;;1.60;;
68432;SDS011;55412;51.350;17.056;2023-07-20T08:50:45;4.33;;;1.57;;
68432;SDS011;55412;51.350;17.056;2023-07-20T08:53:13;4.45;;;1.67;;
68432;SDS011;55412;51.350;17.056;2023-07-20T08:55:40;5.00;;;1.92;;
68432;SDS011;55412;51.350;17.056;2023-07-20T08:58:11;4.65;;;1.58;;
68432;SDS011;55412;51.350;17.056;2023-07-20T09:00:39;4.88;;;1.70;;
68432;SDS011;55412;51.350;17.056;2023-07-20T09:03:07;4.60;;;1.50;;
68432;SDS011;55412;51.350;17.056;2023-07-20T09:05:34;4.95;;;1.60;;
68432;SDS011;55412;51.350;17.056;2023-07-20T09:08:01;3.38;;;1.20;;
68432;SDS011;55412;51.350;17.056;2023-07-20T09:10:29;4.60;;;1.80;;
68432;SDS011;55412;51.350;17.056;2023-07-20T09:12:55;3.40;;;1.30;;
68432;SDS011;55412;51.350;17.056;2023-07-20T09:15:22;2.90;;;1.13;;
68432;SDS011;55412;51.350;17.056;2023-07-20T09:17:49;3.08;;;0.90;;
68432;SDS011;55412;51.350;17.056;2023-07-20T09:20:18;3.92;;;1.20;;
68432;SDS011;55412;51.350;17.056;2023-07-20T09:22:46;3.08;;;1.30;;
68432;SDS011;55412;51.350;17.056;2023-07-20T09:27:42;3.90;;;1.50;;
68432;SDS011;55412;51.350;17.056;2023-07-20T09:30:10;4.13;;;1.42;;
68432;SDS011;55412;51.350;17.056;2023-07-20T09:32:43;4.22;;;1.73;;
68432;SDS011;55412;51.350;17.056;2023-07-20T09:35:17;3.03;;;1.10;;
68432;SDS011;55412;51.350;17.056;2023-07-20T09:37:46;3.00;;;1.40;;
68432;SDS011;55412;51.350;17.056;2023-07-20T09:40:20;2.87;;;1.00;;
68432;SDS011;55412;51.350;17.056;2023-07-20T09:42:47;3.28;;;1.25;;
68432;SDS011;55412;51.350;17.056;2023-07-20T09:45:13;4.13;;;1.40;;
68432;SDS011;55412;51.350;17.056;2023-07-20T09:47:40;2.75;;;1.00;;
68432;SDS011;55412;51.350;17.056;2023-07-20T09:50:07;3.28;;;1.25;;
68432;SDS011;55412;51.350;17.056;2023-07-20T09:52:40;3.47;;;1.20;;
68432;SDS011;55412;51.350;17.056;2023-07-20T09:55:09;3.95;;;1.70;;
68432;SDS011;55412;51.350;17.056;2023-07-20T09:57:39;3.38;;;1.30;;
68432;SDS011;55412;51.350;17.056;2023-07-20T10:00:06;3.78;;;1.10;;
68432;SDS011;55412;51.350;17.056;2023-07-20T10:02:42;4.13;;;1.38;;
68432;SDS011;55412;51.350;17.056;2023-07-20T10:05:13;3.00;;;1.10;;
68432;SDS011;55412;51.350;17.056;2023-07-20T10:07:46;3.60;;;1.52;;
68432;SDS011;55412;51.350;17.056;2023-07-20T10:10:16;5.18;;;1.60;;
68432;SDS011;55412;51.350;17.056;2023-07-20T10:12:44;5.30;;;1.40;;
68432;SDS011;55412;51.350;17.056;2023-07-20T10:15:15;3.05;;;1.35;;
68432;SDS011;55412;51.350;17.056;2023-07-20T10:17:57;2.87;;;1.07;;
68432;SDS011;55412;51.350;17.056;2023-07-20T10:20:28;2.55;;;1.20;;
68432;SDS011;55412;51.350;17.056;2023-07-20T10:22:57;2.75;;;1.13;;
68432;SDS011;55412;51.350;17.056;2023-07-20T10:25:25;4.03;;;1.20;;
68432;SDS011;55412;51.350;17.056;2023-07-20T10:27:57;3.47;;;1.77;;
68432;SDS011;55412;51.350;17.056;2023-07-20T10:30:24;3.00;;;1.37;;
68432;SDS011;55412;51.350;17.056;2023-07-20T10:32:51;4.15;;;1.25;;
68432;SDS011;55412;51.350;17.056;2023-07-20T10:35:18;2.75;;;1.38;;
68432;SDS011;55412;51.350;17.056;2023-07-20T10:38:18;7.05;;;1.60;;
68432;SDS011;55412;51.350;17.056;2023-07-20T10:40:40;3.22;;;1.83;;
68432;SDS011;55412;51.350;17.056;2023-07-20T10:43:07;2.50;;;0.93;;
68432;SDS011;55412;51.350;17.056;2023-07-20T10:45:36;2.97;;;1.15;;
68432;SDS011;55412;51.350;17.056;2023-07-20T10:48:14;3.10;;;1.58;;
68432;SDS011;55412;51.350;17.056;2023-07-20T10:50:44;3.47;;;1.40;;
68432;SDS011;55412;51.350;17.056;2023-07-20T10:53:32;3.40;;;1.52;;
68432;SDS011;55412;51.350;17.056;2023-07-20T10:56:19;2.80;;;1.20;;
68432;SDS011;55412;51.350;17.056;2023-07-20T10:58:57;2.58;;;1.05;;
68432;SDS011;55412;51.350;17.056;2023-07-20T11:01:31;3.00;;;1.25;;
68432;SDS011;55412;51.350;17.056;2023-07-20T11:04:02;3.03;;;1.38;;
68432;SDS011;55412;51.350;17.056;2023-07-20T11:06:34;6.90;;;1.50;;
68432;SDS011;55412;51.350;17.056;2023-07-20T11:11:46;3.40;;;1.40;;
68432;SDS011;55412;51.350;17.056;2023-07-20T11:14:20;2.88;;;1.20;;
68432;SDS011;55412;51.350;17.056;2023-07-20T11:16:49;5.57;;;1.00;;
68432;SDS011;55412;51.350;17.056;2023-07-20T11:19:18;3.03;;;1.15;;
68432;SDS011;55412;51.350;17.056;2023-07-20T11:21:50;4.37;;;1.43;;
68432;SDS011;55412;51.350;17.056;2023-07-20T11:24:20;2.70;;;0.95;;
68432;SDS011;55412;51.350;17.056;2023-07-20T11:26:50;3.00;;;1.10;;
68432;SDS011;55412;51.350;17.056;2023-07-20T11:29:20;3.67;;;0.90;;
68432;SDS011;55412;51.350;17.056;2023-07-20T11:31:50;3.47;;;1.50;;
68432;SDS011;55412;51.350;17.056;2023-07-20T11:34:17;2.87;;;1.17;;
68432;SDS011;55412;51.350;17.056;2023-07-20T11:36:46;3.22;;;1.17;;
68432;SDS011;55412;51.350;17.056;2023-07-20T11:39:15;3.95;;;1.38;;
68432;SDS011;55412;51.350;17.056;2023-07-20T11:41:50;4.18;;;1.40;;
68432;SDS011;55412;51.350;17.056;2023-07-20T11:44:22;2.88;;;1.55;;
68432;SDS011;55412;51.350;17.056;2023-07-20T11:49:42;3.20;;;1.40;;
68432;SDS011;55412;51.350;17.056;2023-07-20T11:52:15;4.45;;;1.83;;
68432;SDS011;55412;51.350;17.056;2023-07-20T11:54:42;2.90;;;1.05;;
68432;SDS011;55412;51.350;17.056;2023-07-20T11:57:18;2.83;;;1.10;;
68432;SDS011;55412;51.350;17.056;2023-07-20T11:59:58;2.47;;;0.97;;
68432;SDS011;55412;51.350;17.056;2023-07-20T12:02:34;3.80;;;1.25;;
68432;SDS011;55412;51.350;17.056;2023-07-20T12:05:01;3.00;;;1.27;;
68432;SDS011;55412;51.350;17.056;2023-07-20T12:07:29;3.47;;;1.50;;
68432;SDS011;55412;51.350;17.056;2023-07-20T12:10:08;2.88;;;1.38;;
68432;SDS011;55412;51.350;17.056;2023-07-20T12:12:43;2.70;;;1.23;;
68432;SDS011;55412;51.350;17.056;2023-07-20T12:17:55;2.58;;;0.85;;
68432;SDS011;55412;51.350;17.056;2023-07-20T12:20:27;3.25;;;0.90;;
68432;SDS011;55412;51.350;17.056;2023-07-20T12:22:56;2.85;;;1.30;;
68432;SDS011;55412;51.350;17.056;2023-07-20T12:28:13;2.83;;;0.80;;
68432;SDS011;55412;51.350;17.056;2023-07-20T12:30:42;3.92;;;1.15;;
68432;SDS011;55412;51.350;17.056;2023-07-20T12:33:10;4.80;;;0.98;;
68432;SDS011;55412;51.350;17.056;2023-07-20T12:35:39;3.10;;;0.85;;
68432;SDS011;55412;51.350;17.056;2023-07-20T12:38:05;2.93;;;1.10;;
68432;SDS011;55412;51.350;17.056;2023-07-20T12:40:31;2.63;;;1.10;;
68432;SDS011;55412;51.350;17.056;2023-07-20T12:42:58;3.83;;;1.30;;
68432;SDS011;55412;51.350;17.056;2023-07-20T12:45:24;3.42;;;1.00;;
68432;SDS011;55412;51.350;17.056;2023-07-20T12:47:51;2.67;;;1.05;;
68432;SDS011;55412;51.350;17.056;2023-07-20T12:50:17;2.27;;;0.63;;
68432;SDS011;55412;51.350;17.056;2023-07-20T12:52:43;3.33;;;0.80;;
68432;SDS011;55412;51.350;17.056;2023-07-20T12:55:10;2.38;;;0.90;;
68432;SDS011;55412;51.350;17.056;2023-07-20T12:57:36;3.75;;;0.77;;
68432;SDS011;55412;51.350;17.056;2023-07-20T13:00:04;4.95;;;1.48;;
68432;SDS011;55412;51.350;17.056;2023-07-20T13:02:35;2.67;;;0.90;;
68432;SDS011;55412;51.350;17.056;2023-07-20T13:05:02;2.95;;;1.13;;
68432;SDS011;55412;51.350;17.056;2023-07-20T13:07:29;3.00;;;1.08;;
68432;SDS011;55412;51.350;17.056;2023-07-20T13:10:01;2.65;;;0.88;;
68432;SDS011;55412;51.350;17.056;2023-07-20T13:12:31;4.97;;;1.15;;
68432;SDS011;55412;51.350;17.056;2023-07-20T13:14:59;2.50;;;0.83;;
68432;SDS011;55412;51.350;17.056;2023-07-20T13:17:27;2.58;;;0.90;;
68432;SDS011;55412;51.350;17.056;2023-07-20T13:19:54;4.68;;;2.00;;
68432;SDS011;55412;51.350;17.056;2023-07-20T13:22:20;3.60;;;1.40;;
68432;SDS011;55412;51.350;17.056;2023-07-20T13:24:46;3.85;;;1.20;;
68432;SDS011;55412;51.350;17.056;2023-07-20T13:27:17;2.60;;;1.27;;
68432;SDS011;55412;51.350;17.056;2023-07-20T13:29:44;2.47;;;0.98;;
68432;SDS011;55412;51.350;17.056;2023-07-20T13:32:12;3.50;;;1.40;;
68432;SDS011;55412;51.350;17.056;2023-07-20T13:34:45;3.70;;;1.50;;
68432;SDS011;55412;51.350;17.056;2023-07-20T13:37:16;4.25;;;1.45;;
68432;SDS011;55412;51.350;17.056;2023-07-20T13:39:46;3.93;;;1.60;;
68432;SDS011;55412;51.350;17.056;2023-07-20T13:42:12;2.80;;;0.88;;
68432;SDS011;55412;51.350;17.056;2023-07-20T13:44:39;4.53;;;1.33;;
68432;SDS011;55412;51.350;17.056;2023-07-20T13:47:06;2.50;;;1.15;;
68432;SDS011;55412;51.350;17.056;2023-07-20T13:49:32;2.95;;;1.13;;
68432;SDS011;55412;51.350;17.056;2023-07-20T13:51:58;3.33;;;1.20;;
68432;SDS011;55412;51.350;17.056;2023-07-20T13:54:25;3.70;;;1.08;;
68432;SDS011;55412;51.350;17.056;2023-07-20T13:56:51;3.90;;;1.50;;
68432;SDS011;55412;51.350;17.056;2023-07-20T13:59:17;2.92;;;1.30;;
68432;SDS011;55412;51.350;17.056;2023-07-20T14:01:44;2.67;;;1.38;;
68432;SDS011;55412;51.350;17.056;2023-07-20T14:04:10;3.07;;;1.20;;
68432;SDS011;55412;51.350;17.056;2023-07-20T14:06:36;4.28;;;1.52;;
68432;SDS011;55412;51.350;17.056;2023-07-20T14:09:02;2.67;;;1.30;;
68432;SDS011;55412;51.350;17.056;2023-07-20T14:11:29;4.57;;;1.23;;
68432;SDS011;55412;51.350;17.056;2023-07-20T14:13:55;2.42;;;1.00;;
68432;SDS011;55412;51.350;17.056;2023-07-20T14:16:23;3.97;;;1.40;;
68432;SDS011;55412;51.350;17.056;2023-07-20T14:18:50;3.22;;;1.10;;
68432;SDS011;55412;51.350;17.056;2023-07-20T14:21:17;2.90;;;1.58;;
68432;SDS011;55412;51.350;17.056;2023-07-20T14:23:46;4.38;;;1.48;;
68432;SDS011;55412;51.350;17.056;2023-07-20T14:26:18;3.38;;;0.80;;
68432;SDS011;55412;51.350;17.056;2023-07-20T14:28:44;6.23;;;1.00;;
68432;SDS011;55412;51.350;17.056;2023-07-20T14:31:10;4.03;;;0.93;;
68432;SDS011;55412;51.350;17.056;2023-07-20T14:33:36;2.63;;;1.00;;
68432;SDS011;55412;51.350;17.056;2023-07-20T14:36:03;2.47;;;0.82;;
68432;SDS011;55412;51.350;17.056;2023-07-20T14:38:30;2.40;;;1.00;;
68432;SDS011;55412;51.350;17.056;2023-07-20T14:40:58;4.13;;;1.10;;
68432;SDS011;55412;51.350;17.056;2023-07-20T14:43:24;4.05;;;1.48;;
68432;SDS011;55412;51.350;17.056;2023-07-20T14:45:50;2.58;;;1.27;;
68432;SDS011;55412;51.350;17.056;2023-07-20T14:48:17;5.05;;;1.08;;
68432;SDS011;55412;51.350;17.056;2023-07-20T14:50:43;3.17;;;1.10;;
68432;SDS011;55412;51.350;17.056;2023-07-20T14:53:12;3.03;;;0.80;;
68432;SDS011;55412;51.350;17.056;2023-07-20T14:55:39;2.50;;;1.15;;
68432;SDS011;55412;51.350;17.056;2023-07-20T14:58:06;2.97;;;1.27;;
68432;SDS011;55412;51.350;17.056;2023-07-20T15:00:33;5.03;;;2.15;;
68432;SDS011;55412;51.350;17.056;2023-07-20T15:03:00;2.78;;;1.30;;
68432;SDS011;55412;51.350;17.056;2023-07-20T15:05:26;6.27;;;1.30;;
68432;SDS011;55412;51.350;17.056;2023-07-20T15:07:52;3.13;;;1.05;;
68432;SDS011;55412;51.350;17.056;2023-07-20T15:10:19;4.25;;;1.33;;
68432;SDS011;55412;51.350;17.056;2023-07-20T15:12:45;2.65;;;0.98;;
68432;SDS011;55412;51.350;17.056;2023-07-20T15:15:12;3.17;;;1.60;;